Time,TemperatureF,DewpointF,PressureIn,WindDirection,WindDirectionDegrees,WindSpeedMPH,WindSpeedGustMPH,Humidity,HourlyPrecipIn,Conditions,Clouds,dailyrainin,SoftwareType,DateUTC
2013-08-18 00:00:00,76.8,51.3,29.84,SSW,201,1.0,1.0,41,0.00,,,0.00,Wunderground v.1.15,2013-08-18 06:00:00,
2013-08-18 00:10:00,76.8,51.3,29.84,SSW,201,0.0,0.0,41,0.00,,,0.00,Wunderground v.1.15,2013-08-18 06:10:00,
2013-08-18 00:20:00,76.6,51.1,29.84,SSW,201,0.0,0.0,41,0.00,,,0.00,Wunderground v.1.15,2013-08-18 06:20:00,
2013-08-18 00:30:00,76.6,51.1,29.84,SSW,201,0.0,0.0,41,0.00,,,0.00,Wunderground v.1.15,2013-08-18 06:30:00,
2013-08-18 00:40:00,76.3,51.5,29.84,SSW,201,0.0,0.0,42,0.00,,,0.00,Wunderground v.1.15,2013-08-18 06:40:00,
2013-08-18 00:50:00,76.7,50.6,29.84,SSW,201,2.0,2.0,40,0.00,,,0.00,Wunderground v.1.15,2013-08-18 06:50:00,
2013-08-18 01:00:00,76.7,50.6,29.84,SSW,201,0.0,1.0,40,0.00,,,0.00,Wunderground v.1.15,2013-08-18 07:00:00,
2013-08-18 01:10:00,76.6,50.5,29.83,SSW,201,0.0,7.0,40,0.00,,,0.00,Wunderground v.1.15,2013-08-18 07:10:00,
2013-08-18 01:20:00,76.3,50.9,29.83,SSW,201,0.0,7.0,41,0.00,,,0.00,Wunderground v.1.15,2013-08-18 07:20:00,
2013-08-18 01:30:00,75.6,51.5,29.82,SSW,201,0.0,7.0,43,0.00,,,0.00,Wunderground v.1.15,2013-08-18 07:30:00,
2013-08-18 01:40:00,75.4,52.0,29.82,SSW,201,0.0,7.0,44,0.00,,,0.00,Wunderground v.1.15,2013-08-18 07:40:00,
2013-08-18 01:50:00,75.3,51.9,29.82,SSW,201,0.0,7.0,44,0.00,,,0.00,Wunderground v.1.15,2013-08-18 07:50:00,
2013-08-18 02:00:00,75.5,52.7,29.82,SSW,201,1.0,1.0,45,0.00,,,0.00,Wunderground v.1.15,2013-08-18 08:00:00,
2013-08-18 02:10:00,75.5,52.7,29.82,SSW,201,1.0,1.0,45,0.00,,,0.00,Wunderground v.1.15,2013-08-18 08:10:00,
2013-08-18 02:20:00,75.2,52.4,29.82,SSW,201,0.0,7.0,45,0.00,,,0.00,Wunderground v.1.15,2013-08-18 08:20:00,
2013-08-18 02:30:00,75.0,52.8,29.83,SSW,201,0.0,7.0,46,0.00,,,0.00,Wunderground v.1.15,2013-08-18 08:30:00,
2013-08-18 02:40:00,74.7,52.5,29.82,SSW,201,0.0,7.0,46,0.00,,,0.00,Wunderground v.1.15,2013-08-18 08:40:00,
2013-08-18 02:50:00,74.4,51.1,29.82,SSW,201,0.0,7.0,44,0.00,,,0.00,Wunderground v.1.15,2013-08-18 08:50:00,
2013-08-18 03:00:00,74.5,52.9,29.82,SSW,201,0.0,7.0,47,0.00,,,0.00,Wunderground v.1.15,2013-08-18 09:00:00,
2013-08-18 03:10:00,74.4,49.8,29.82,SSW,208,1.0,1.0,42,0.00,,,0.00,Wunderground v.1.15,2013-08-18 09:10:00,
2013-08-18 03:20:00,75.0,49.7,29.82,SSW,209,0.0,7.0,41,0.00,,,0.00,Wunderground v.1.15,2013-08-18 09:20:00,
2013-08-18 03:30:00,75.0,49.7,29.83,SSW,208,0.0,7.0,41,0.00,,,0.00,Wunderground v.1.15,2013-08-18 09:30:00,
2013-08-18 03:40:00,73.7,52.2,29.83,SSW,208,4.0,4.0,47,0.00,,,0.00,Wunderground v.1.15,2013-08-18 09:40:00,
2013-08-18 03:50:00,72.9,53.2,29.83,SSW,208,1.0,7.0,50,0.00,,,0.00,Wunderground v.1.15,2013-08-18 09:50:00,
2013-08-18 04:00:00,72.3,53.2,29.83,SSW,209,2.0,7.0,51,0.00,,,0.00,Wunderground v.1.15,2013-08-18 10:00:00,
2013-08-18 04:10:00,72.0,53.4,29.83,SSW,213,3.0,7.0,52,0.00,,,0.00,Wunderground v.1.15,2013-08-18 10:10:00,
2013-08-18 04:20:00,71.9,53.3,29.83,SSW,213,1.0,7.0,52,0.00,,,0.00,Wunderground v.1.15,2013-08-18 10:20:00,
2013-08-18 04:30:00,71.9,53.3,29.83,SSW,213,1.0,1.0,52,0.00,,,0.00,Wunderground v.1.15,2013-08-18 10:30:00,
2013-08-18 04:40:00,72.1,53.5,29.83,SSW,213,0.0,7.0,52,0.00,,,0.00,Wunderground v.1.15,2013-08-18 10:40:00,
2013-08-18 04:50:00,72.1,53.5,29.83,SSW,213,1.0,1.0,52,0.00,,,0.00,Wunderground v.1.15,2013-08-18 10:50:00,
2013-08-18 05:00:00,72.1,53.5,29.84,SSW,213,0.0,7.0,52,0.00,,,0.00,Wunderground v.1.15,2013-08-18 11:00:00,
2013-08-18 05:10:00,72.0,53.4,29.83,SSW,213,1.0,1.0,52,0.00,,,0.00,Wunderground v.1.15,2013-08-18 11:10:00,
2013-08-18 05:20:00,72.1,53.0,29.83,SSW,213,0.0,7.0,51,0.00,,,0.00,Wunderground v.1.15,2013-08-18 11:20:00,
2013-08-18 05:30:00,72.0,54.4,29.83,SSW,213,0.0,7.0,54,0.00,,,0.00,Wunderground v.1.15,2013-08-18 11:30:00,
2013-08-18 05:40:00,71.4,53.4,29.83,SSW,213,0.0,7.0,53,0.00,,,0.00,Wunderground v.1.15,2013-08-18 11:40:00,
2013-08-18 05:50:00,71.2,53.7,29.83,SSW,213,0.0,7.0,54,0.00,,,0.00,Wunderground v.1.15,2013-08-18 11:50:00,
2013-08-18 06:00:00,71.1,53.6,29.83,SSW,213,0.0,7.0,54,0.00,,,0.00,Wunderground v.1.15,2013-08-18 12:00:00,
2013-08-18 06:10:00,70.9,53.9,29.84,SSW,213,0.0,7.0,55,0.00,,,0.00,Wunderground v.1.15,2013-08-18 12:10:00,
2013-08-18 06:20:00,70.6,53.1,29.84,SSW,213,0.0,7.0,54,0.00,,,0.00,Wunderground v.1.15,2013-08-18 12:20:00,
2013-08-18 06:30:00,70.6,53.1,29.84,SSW,213,0.0,7.0,54,0.00,,,0.00,Wunderground v.1.15,2013-08-18 12:30:00,
2013-08-18 06:40:00,70.5,53.1,29.85,SSW,213,0.0,7.0,54,0.00,,,0.00,Wunderground v.1.15,2013-08-18 12:40:00,
2013-08-18 06:50:00,70.7,53.2,29.85,SSW,213,0.0,7.0,54,0.00,,,0.00,Wunderground v.1.15,2013-08-18 12:50:00,
2013-08-18 07:00:00,71.1,52.6,29.85,SSW,213,0.0,7.0,52,0.00,,,0.00,Wunderground v.1.15,2013-08-18 13:00:00,
2013-08-18 07:10:00,71.3,53.3,29.85,SSW,213,0.0,7.0,53,0.00,,,0.00,Wunderground v.1.15,2013-08-18 13:10:00,
2013-08-18 07:20:00,71.6,53.6,29.85,SSW,213,0.0,7.0,53,0.00,,,0.00,Wunderground v.1.15,2013-08-18 13:20:00,
2013-08-18 07:30:00,72.0,52.9,29.86,SSW,213,0.0,7.0,51,0.00,,,0.00,Wunderground v.1.15,2013-08-18 13:30:00,
2013-08-18 07:40:00,72.9,53.2,29.86,SSW,213,0.0,7.0,50,0.00,,,0.00,Wunderground v.1.15,2013-08-18 13:40:00,
2013-08-18 07:50:00,74.6,53.0,29.86,SSW,213,0.0,7.0,47,0.00,,,0.00,Wunderground v.1.15,2013-08-18 13:50:00,
2013-08-18 08:00:00,76.2,52.1,29.87,SSW,213,0.0,7.0,43,0.00,,,0.00,Wunderground v.1.15,2013-08-18 14:00:00,
2013-08-18 08:10:00,76.2,51.4,29.87,SSW,213,0.0,7.0,42,0.00,,,0.00,Wunderground v.1.15,2013-08-18 14:10:00,
2013-08-18 08:20:00,76.9,52.1,29.87,SSW,213,0.0,7.0,42,0.00,,,0.00,Wunderground v.1.15,2013-08-18 14:20:00,
2013-08-18 08:30:00,77.9,50.9,29.87,SSW,213,0.0,7.0,39,0.00,,,0.00,Wunderground v.1.15,2013-08-18 14:30:00,
2013-08-18 08:40:00,78.9,50.4,29.87,SSW,213,0.0,7.0,37,0.00,,,0.00,Wunderground v.1.15,2013-08-18 14:40:00,
2013-08-18 08:50:00,79.0,50.5,29.87,SSW,213,0.0,7.0,37,0.00,,,0.00,Wunderground v.1.15,2013-08-18 14:50:00,
2013-08-18 09:00:00,79.0,50.5,29.87,SSW,213,2.0,2.0,37,0.00,,,0.00,Wunderground v.1.15,2013-08-18 15:00:00,
2013-08-18 09:10:00,79.0,50.5,29.87,SW,222,1.0,1.0,37,0.00,,,0.00,Wunderground v.1.15,2013-08-18 15:10:00,
2013-08-18 09:20:00,79.6,51.0,29.86,SW,222,1.0,7.0,37,0.00,,,0.00,Wunderground v.1.15,2013-08-18 15:20:00,
2013-08-18 09:30:00,79.8,50.5,29.87,SW,222,1.0,1.0,36,0.00,,,0.00,Wunderground v.1.15,2013-08-18 15:30:00,
2013-08-18 09:40:00,80.5,51.1,29.87,SW,222,1.0,7.0,36,0.00,,,0.00,Wunderground v.1.15,2013-08-18 15:40:00,
2013-08-18 09:50:00,81.4,51.1,29.87,SW,222,1.0,7.0,35,0.00,,,0.00,Wunderground v.1.15,2013-08-18 15:50:00,
2013-08-18 10:00:00,82.8,50.8,29.87,SW,222,1.0,1.0,33,0.00,,,0.00,Wunderground v.1.15,2013-08-18 16:00:00,
2013-08-18 10:10:00,83.1,51.0,29.87,West,260,2.0,2.0,33,0.00,,,0.00,Wunderground v.1.15,2013-08-18 16:10:00,
2013-08-18 10:20:00,83.5,50.5,29.87,West,265,2.0,7.0,32,0.00,,,0.00,Wunderground v.1.15,2013-08-18 16:20:00,
2013-08-18 10:30:00,83.7,50.7,29.86,West,261,2.0,2.0,32,0.00,,,0.00,Wunderground v.1.15,2013-08-18 16:30:00,
2013-08-18 10:40:00,84.4,50.5,29.86,WNW,296,1.0,1.0,31,0.00,,,0.00,Wunderground v.1.15,2013-08-18 16:40:00,
2013-08-18 10:50:00,84.0,51.0,29.86,NW,317,3.0,3.0,32,0.00,,,0.00,Wunderground v.1.15,2013-08-18 16:50:00,
2013-08-18 11:00:00,85.1,51.1,29.86,NW,317,1.0,7.0,31,0.00,,,0.00,Wunderground v.1.15,2013-08-18 17:00:00,
2013-08-18 11:10:00,86.1,51.0,29.86,NW,323,2.0,2.0,30,0.00,,,0.00,Wunderground v.1.15,2013-08-18 17:10:00,
2013-08-18 11:20:00,86.1,51.0,29.85,NW,323,2.0,7.0,30,0.00,,,0.00,Wunderground v.1.15,2013-08-18 17:20:00,
2013-08-18 11:30:00,86.1,50.1,29.85,NW,326,3.0,3.0,29,0.00,,,0.00,Wunderground v.1.15,2013-08-18 17:30:00,
2013-08-18 11:40:00,86.9,49.9,29.85,NNW,331,2.0,7.0,28,0.00,,,0.00,Wunderground v.1.15,2013-08-18 17:40:00,
2013-08-18 11:50:00,87.3,50.2,29.85,NNW,329,3.0,3.0,28,0.00,,,0.00,Wunderground v.1.15,2013-08-18 17:50:00,
2013-08-18 12:00:00,87.8,49.7,29.84,NNW,329,2.0,2.0,27,0.00,,,0.00,Wunderground v.1.15,2013-08-18 18:00:00,
2013-08-18 12:10:00,88.6,50.3,29.84,NNW,328,2.0,7.0,27,0.00,,,0.00,Wunderground v.1.15,2013-08-18 18:10:00,
2013-08-18 12:20:00,87.8,49.7,29.83,North,355,1.0,7.0,27,0.00,,,0.00,Wunderground v.1.15,2013-08-18 18:20:00,
2013-08-18 12:30:00,87.9,48.7,29.83,North,360,2.0,7.0,26,0.00,,,0.00,Wunderground v.1.15,2013-08-18 18:30:00,
2013-08-18 12:40:00,88.9,48.5,29.82,North,360,2.0,2.0,25,0.00,,,0.00,Wunderground v.1.15,2013-08-18 18:40:00,
2013-08-18 12:50:00,90.8,47.9,29.82,North,350,1.0,7.0,23,0.00,,,0.00,Wunderground v.1.15,2013-08-18 18:50:00,
2013-08-18 13:00:00,90.4,48.7,29.81,SSW,207,2.0,7.0,24,0.00,,,0.00,Wunderground v.1.15,2013-08-18 19:00:00,
2013-08-18 13:10:00,88.8,48.4,29.81,SE,144,4.0,4.0,25,0.00,,,0.00,Wunderground v.1.15,2013-08-18 19:10:00,
2013-08-18 13:20:00,88.9,49.6,29.80,SSE,165,3.0,7.0,26,0.00,,,0.00,Wunderground v.1.15,2013-08-18 19:20:00,
2013-08-18 13:30:00,89.8,48.2,29.80,NNE,24,3.0,7.0,24,0.00,,,0.00,Wunderground v.1.15,2013-08-18 19:30:00,
2013-08-18 13:40:00,89.7,48.1,29.80,ESE,119,2.0,7.0,24,0.00,,,0.00,Wunderground v.1.15,2013-08-18 19:40:00,
2013-08-18 13:50:00,89.9,49.4,29.80,SSE,154,4.0,4.0,25,0.00,,,0.00,Wunderground v.1.15,2013-08-18 19:50:00,
2013-08-18 14:00:00,90.7,48.9,29.79,WSW,237,2.0,7.0,24,0.00,,,0.00,Wunderground v.1.15,2013-08-18 20:00:00,
2013-08-18 14:10:00,91.3,49.4,29.78,South,185,3.0,7.0,24,0.00,,,0.00,Wunderground v.1.15,2013-08-18 20:10:00,
2013-08-18 14:20:00,90.3,47.5,29.78,SSE,148,6.0,6.0,23,0.00,,,0.00,Wunderground v.1.15,2013-08-18 20:20:00,
2013-08-18 14:30:00,90.8,47.9,29.78,SSE,163,2.0,7.0,23,0.00,,,0.00,Wunderground v.1.15,2013-08-18 20:30:00,
2013-08-18 14:40:00,91.6,46.1,29.77,SSW,206,3.0,10.0,21,0.00,,,0.00,Wunderground v.1.15,2013-08-18 20:40:00,
2013-08-18 14:50:00,90.5,47.6,29.77,SE,145,4.0,4.0,23,0.00,,,0.00,Wunderground v.1.15,2013-08-18 20:50:00,
2013-08-18 15:00:00,91.6,46.1,29.76,WSW,243,4.0,4.0,21,0.00,,,0.00,Wunderground v.1.15,2013-08-18 21:00:00,
2013-08-18 15:10:00,92.2,46.6,29.76,SSE,167,3.0,7.0,21,0.00,,,0.00,Wunderground v.1.15,2013-08-18 21:10:00,
2013-08-18 15:20:00,92.5,45.6,29.76,South,186,3.0,7.0,20,0.00,,,0.00,Wunderground v.1.15,2013-08-18 21:20:00,
2013-08-18 15:30:00,92.0,45.2,29.75,SSW,192,6.0,6.0,20,0.00,,,0.00,Wunderground v.1.15,2013-08-18 21:30:00,
2013-08-18 15:40:00,93.3,44.9,29.75,SW,232,4.0,4.0,19,0.00,,,0.00,Wunderground v.1.15,2013-08-18 21:40:00,
2013-08-18 15:50:00,93.0,46.0,29.75,SE,146,5.0,5.0,20,0.00,,,0.00,Wunderground v.1.15,2013-08-18 21:50:00,
2013-08-18 16:00:00,93.7,46.6,29.74,SSW,207,4.0,4.0,20,0.00,,,0.00,Wunderground v.1.15,2013-08-18 22:00:00,
2013-08-18 16:10:00,93.8,46.7,29.74,SSE,148,3.0,7.0,20,0.00,,,0.00,Wunderground v.1.15,2013-08-18 22:10:00,
2013-08-18 16:20:00,93.9,45.4,29.73,SSW,213,3.0,7.0,19,0.00,,,0.00,Wunderground v.1.15,2013-08-18 22:20:00,
2013-08-18 16:30:00,93.3,44.9,29.73,WSW,241,4.0,4.0,19,0.00,,,0.00,Wunderground v.1.15,2013-08-18 22:30:00,
2013-08-18 16:40:00,93.3,44.9,29.73,WSW,252,2.0,7.0,19,0.00,,,0.00,Wunderground v.1.15,2013-08-18 22:40:00,
2013-08-18 16:50:00,92.2,45.3,29.73,SSW,198,3.0,7.0,20,0.00,,,0.00,Wunderground v.1.15,2013-08-18 22:50:00,
2013-08-18 17:00:00,91.3,44.6,29.72,South,190,5.0,5.0,20,0.00,,,0.00,Wunderground v.1.15,2013-08-18 23:00:00,
2013-08-18 17:10:00,91.2,44.5,29.72,South,190,2.0,2.0,20,0.00,,,0.00,Wunderground v.1.15,2013-08-18 23:10:00,
2013-08-18 17:20:00,91.4,44.7,29.72,SW,223,3.0,3.0,20,0.00,,,0.00,Wunderground v.1.15,2013-08-18 23:20:00,
2013-08-18 17:30:00,91.5,44.8,29.71,SSW,202,3.0,3.0,20,0.00,,,0.00,Wunderground v.1.15,2013-08-18 23:30:00,
2013-08-18 17:40:00,91.9,46.4,29.71,SW,235,1.0,7.0,21,0.00,,,0.00,Wunderground v.1.15,2013-08-18 23:40:00,
2013-08-18 17:50:00,91.7,46.2,29.72,NW,317,4.0,7.0,21,0.00,,,0.00,Wunderground v.1.15,2013-08-18 23:50:00,
2013-08-18 18:00:00,91.4,46.0,29.71,NW,323,5.0,5.0,21,0.00,,,0.00,Wunderground v.1.15,2013-08-19 00:00:00,
2013-08-18 18:10:00,91.3,45.9,29.72,NW,319,3.0,3.0,21,0.00,,,0.00,Wunderground v.1.15,2013-08-19 00:10:00,
2013-08-18 18:20:00,91.3,45.9,29.72,NNW,336,2.0,2.0,21,0.00,,,0.00,Wunderground v.1.15,2013-08-19 00:20:00,
2013-08-18 18:30:00,91.0,45.6,29.71,North,355,2.0,7.0,21,0.00,,,0.00,Wunderground v.1.15,2013-08-19 00:30:00,
2013-08-18 18:40:00,90.6,45.3,29.71,North,355,2.0,7.0,21,0.00,,,0.00,Wunderground v.1.15,2013-08-19 00:40:00,
2013-08-18 18:50:00,90.6,46.5,29.71,North,355,2.0,2.0,22,0.00,,,0.00,Wunderground v.1.15,2013-08-19 00:50:00,
2013-08-18 19:10:00,90.1,46.1,29.72,NNW,329,1.0,1.0,22,0.00,,,0.00,Wunderground v.1.15,2013-08-19 01:10:00,
2013-08-18 19:20:00,89.6,45.7,29.72,NNW,329,1.0,7.0,22,0.00,,,0.00,Wunderground v.1.15,2013-08-19 01:20:00,
2013-08-18 19:30:00,89.6,45.7,29.72,NNW,348,2.0,2.0,22,0.00,,,0.00,Wunderground v.1.15,2013-08-19 01:30:00,
2013-08-18 19:40:00,89.0,45.2,29.73,NNW,348,1.0,1.0,22,0.00,,,0.00,Wunderground v.1.15,2013-08-19 01:40:00,
2013-08-18 19:50:00,88.7,46.1,29.73,South,176,3.0,7.0,23,0.00,,,0.00,Wunderground v.1.15,2013-08-19 01:50:00,
2013-08-18 20:00:00,88.2,46.8,29.73,South,171,5.0,7.0,24,0.00,,,0.00,Wunderground v.1.15,2013-08-19 02:00:00,
2013-08-18 20:10:00,86.9,46.8,29.74,South,186,7.0,7.0,25,0.00,,,0.00,Wunderground v.1.15,2013-08-19 02:10:00,
2013-08-18 20:20:00,86.4,47.5,29.75,SSE,160,6.0,10.0,26,0.00,,,0.00,Wunderground v.1.15,2013-08-19 02:20:00,
2013-08-18 20:30:00,85.9,47.0,29.75,SSE,168,5.0,5.0,26,0.00,,,0.00,Wunderground v.1.15,2013-08-19 02:30:00,
2013-08-18 20:40:00,85.6,46.8,29.75,South,172,2.0,7.0,26,0.00,,,0.00,Wunderground v.1.15,2013-08-19 02:40:00,
2013-08-18 20:50:00,85.8,46.9,29.76,SE,138,3.0,7.0,26,0.00,,,0.00,Wunderground v.1.15,2013-08-19 02:50:00,
2013-08-18 21:00:00,84.6,48.8,29.77,ESE,107,6.0,6.0,29,0.00,,,0.00,Wunderground v.1.15,2013-08-19 03:00:00,
2013-08-18 21:10:00,84.0,48.3,29.77,ESE,110,4.0,7.0,29,0.00,,,0.00,Wunderground v.1.15,2013-08-19 03:10:00,
2013-08-18 21:20:00,83.8,49.1,29.78,ESE,107,3.0,3.0,30,0.00,,,0.00,Wunderground v.1.15,2013-08-19 03:20:00,
2013-08-18 21:30:00,83.5,48.8,29.78,East,89,1.0,7.0,30,0.00,,,0.00,Wunderground v.1.15,2013-08-19 03:30:00,
2013-08-18 21:40:00,83.3,48.6,29.79,East,89,1.0,1.0,30,0.00,,,0.00,Wunderground v.1.15,2013-08-19 03:40:00,
2013-08-18 21:50:00,83.5,48.8,29.80,East,92,2.0,7.0,30,0.00,,,0.00,Wunderground v.1.15,2013-08-19 03:50:00,
2013-08-18 22:00:00,83.4,48.7,29.80,East,97,1.0,1.0,30,0.00,,,0.00,Wunderground v.1.15,2013-08-19 04:00:00,
2013-08-18 22:10:00,83.4,48.7,29.80,East,97,0.0,7.0,30,0.00,,,0.00,Wunderground v.1.15,2013-08-19 04:10:00,
2013-08-18 22:20:00,83.2,48.5,29.80,East,97,0.0,7.0,30,0.00,,,0.00,Wunderground v.1.15,2013-08-19 04:20:00,
2013-08-18 22:30:00,83.0,48.4,29.80,East,97,0.0,7.0,30,0.00,,,0.00,Wunderground v.1.15,2013-08-19 04:30:00,
2013-08-18 22:40:00,82.5,48.8,29.80,East,97,0.0,7.0,31,0.00,,,0.00,Wunderground v.1.15,2013-08-19 04:40:00,
2013-08-18 22:50:00,82.1,48.5,29.80,East,97,1.0,1.0,31,0.00,,,0.00,Wunderground v.1.15,2013-08-19 04:50:00,
2013-08-18 23:00:00,81.8,48.2,29.80,East,97,0.0,7.0,31,0.00,,,0.00,Wunderground v.1.15,2013-08-19 05:00:00,
2013-08-18 23:10:00,81.7,48.1,29.81,East,97,1.0,1.0,31,0.00,,,0.00,Wunderground v.1.15,2013-08-19 05:10:00,
2013-08-18 23:20:00,81.1,50.9,29.82,NNW,340,2.0,2.0,35,0.00,,,0.00,Wunderground v.1.15,2013-08-19 05:20:00,
2013-08-18 23:30:00,80.5,49.5,29.82,NNW,340,0.0,7.0,34,0.00,,,0.00,Wunderground v.1.15,2013-08-19 05:30:00,
2013-08-18 23:40:00,79.8,50.5,29.82,NNW,340,1.0,1.0,36,0.00,,,0.00,Wunderground v.1.15,2013-08-19 05:40:00,
2013-08-18 23:50:00,79.5,50.2,29.82,NNW,340,0.0,7.0,36,0.00,,,0.00,Wunderground v.1.15,2013-08-19 05:50:00,